Time;durP1;ratioP1;P1;durP2;ratioP2;P2;SDS_P1;SDS_P2;PMS_P1;PMS_P2;Temp;Humidity;BMP_temperature;BMP_pressure;BME280_temperature;BME280_humidity;BME280_pressure;Samples;Min_cycle;Max_cycle;Signal;HPM_P1;HPM_P2
2021/01/19 00:00:04;;;;;;;;;;;-2.90;91.80;;;;;;4995828;28;87205;-50
2021/01/19 00:02:29;;;;;;;;;;;-2.90;91.80;;;;;;4999523;28;88227;-49
2021/01/19 00:04:55;;;;;;;;;;;-3.00;91.70;;;;;;5000404;28;86388;-49
2021/01/19 00:07:20;;;;;;;;;;;-3.00;91.70;;;;;;5000032;28;87891;-48
2021/01/19 00:09:46;;;;;;;;;;;-3.00;91.80;;;;;;5000135;28;89464;-49
2021/01/19 00:12:12;;;;;;;;;;;-3.00;91.80;;;;;;4999517;28;88106;-49
2021/01/19 00:14:37;;;;;;;;;;;-3.00;91.70;;;;;;4998965;28;88453;-48
2021/01/19 00:17:03;;;;;;;;;;;-3.00;91.60;;;;;;4999245;28;89166;-48
2021/01/19 00:19:28;;;;;;;;;;;-3.00;91.80;;;;;;5002976;28;87137;-48
2021/01/19 00:21:54;;;;;;;;;;;-3.00;91.70;;;;;;4999373;28;89227;-49
2021/01/19 00:24:19;;;;;;;;;;;-3.00;91.70;;;;;;4998481;28;87105;-48
2021/01/19 00:26:45;;;;;;;;;;;-3.00;91.70;;;;;;4999411;28;87270;-49
2021/01/19 00:29:10;;;;;;;;;;;-3.00;91.70;;;;;;4999731;28;87762;-47
2021/01/19 00:31:36;;;;;;;;;;;-3.00;91.60;;;;;;4999414;28;87246;-48
2021/01/19 00:34:01;;;;;;;;;;;-3.00;91.70;;;;;;5001879;28;87144;-49
2021/01/19 00:36:27;;;;;;;;;;;-3.10;91.60;;;;;;5000404;28;89429;-49
2021/01/19 00:38:52;;;;;;;;;;;-3.10;91.60;;;;;;5000970;28;87129;-48
2021/01/19 00:41:18;;;;;;;;;;;-3.00;91.70;;;;;;5002685;28;87766;-48
2021/01/19 00:43:43;;;;;;;;;;;-3.10;91.70;;;;;;4999462;28;87154;-48
2021/01/19 00:46:09;;;;;;;;;;;-3.10;91.60;;;;;;4998552;28;87282;-48
2021/01/19 00:48:34;;;;;;;;;;;-3.10;91.50;;;;;;4998601;28;88393;-48
2021/01/19 00:51:00;;;;;;;;;;;-3.10;91.70;;;;;;4998319;28;87132;-48
2021/01/19 00:53:25;;;;;;;;;;;-3.10;91.80;;;;;;5001695;28;87718;-48
2021/01/19 00:55:51;;;;;;;;;;;-3.10;91.70;;;;;;5014427;28;89280;-49
2021/01/19 00:58:16;;;;;;;;;;;-3.10;91.60;;;;;;5022132;28;88381;-48
2021/01/19 01:00:42;;;;;;;;;;;-3.10;91.60;;;;;;5022949;28;89655;-51
2021/01/19 01:03:07;;;;;;;;;;;-3.10;91.60;;;;;;5024590;28;88779;-49
2021/01/19 01:05:33;;;;;;;;;;;-3.10;91.60;;;;;;5023166;28;89080;-48
2021/01/19 01:08:01;;;;;;;;;;;-3.10;91.60;;;;;;5022422;28;87137;-50
2021/01/19 01:10:27;;;;;;;;;;;-3.20;91.70;;;;;;5018118;28;88914;-48
2021/01/19 01:12:53;;;;;;;;;;;-3.10;91.70;;;;;;5021273;28;88604;-49
2021/01/19 01:15:21;;;;;;;;;;;-3.20;91.50;;;;;;5022643;28;88666;-48
2021/01/19 01:17:47;;;;;;;;;;;-3.20;91.60;;;;;;5018928;28;86416;-49
2021/01/19 01:20:12;;;;;;;;;;;-3.20;91.60;;;;;;5019480;28;88394;-48
2021/01/19 01:22:43;;;;;;;;;;;-3.20;91.70;;;;;;5024237;28;88272;-50
2021/01/19 01:25:09;;;;;;;;;;;-3.20;91.60;;;;;;5019725;28;89410;-49
2021/01/19 01:27:35;;;;;;;;;;;-3.20;91.60;;;;;;5022663;28;87786;-49
2021/01/19 01:30:00;;;;;;;;;;;-3.20;91.80;;;;;;5022740;28;87152;-50
2021/01/19 01:32:26;;;;;;;;;;;-3.20;91.60;;;;;;5021770;28;87566;-48
2021/01/19 01:34:51;;;;;;;;;;;-3.20;91.50;;;;;;5018316;28;88315;-49
2021/01/19 01:37:17;;;;;;;;;;;-3.30;91.70;;;;;;5022700;28;88071;-51
2021/01/19 01:39:43;;;;;;;;;;;-3.20;91.50;;;;;;5022641;28;88015;-48
2021/01/19 01:42:21;;;;;;;;;;;-3.30;91.70;;;;;;5021514;28;87605;-48
2021/01/19 01:44:47;;;;;;;;;;;-3.30;91.50;;;;;;5020086;28;87184;-48
2021/01/19 01:47:16;;;;;;;;;;;-3.30;91.60;;;;;;5020681;28;87891;-52
2021/01/19 01:49:42;;;;;;;;;;;-3.20;91.50;;;;;;5018290;28;88126;-50
2021/01/19 01:52:08;;;;;;;;;;;-3.30;91.40;;;;;;5017786;28;89600;-49
2021/01/19 01:54:34;;;;;;;;;;;-3.30;91.50;;;;;;5018032;28;87157;-51
2021/01/19 01:56:59;;;;;;;;;;;-3.30;91.60;;;;;;5018256;28;87145;-48
2021/01/19 01:59:25;;;;;;;;;;;-3.30;91.60;;;;;;5018022;28;87933;-47
2021/01/19 02:01:50;;;;;;;;;;;-3.30;91.60;;;;;;5017242;28;89848;-49
2021/01/19 02:04:15;;;;;;;;;;;-3.30;91.50;;;;;;5019129;28;88607;-48
2021/01/19 02:06:41;;;;;;;;;;;-3.30;91.40;;;;;;5003398;28;88139;-48
2021/01/19 02:09:15;;;;;;;;;;;-3.30;91.60;;;;;;4999468;28;88946;-50
2021/01/19 02:11:49;;;;;;;;;;;-3.30;91.60;;;;;;4998380;28;87160;-48
2021/01/19 02:14:33;;;;;;;;;;;-3.40;91.40;;;;;;4999916;28;89118;-50
2021/01/19 02:16:58;;;;;;;;;;;-3.40;91.40;;;;;;4997563;28;87171;-48
2021/01/19 02:19:24;;;;;;;;;;;-3.40;91.50;;;;;;4997499;28;87665;-48
2021/01/19 02:22:08;;;;;;;;;;;-3.40;91.50;;;;;;4997676;28;87256;-48
2021/01/19 02:24:34;;;;;;;;;;;-3.40;91.50;;;;;;5000909;28;87244;-49
2021/01/19 02:26:59;;;;;;;;;;;-3.40;91.50;;;;;;5000423;28;87908;-48
2021/01/19 02:29:34;;;;;;;;;;;-3.40;91.40;;;;;;5002479;28;88350;-48
2021/01/19 02:32:14;;;;;;;;;;;-3.40;91.50;;;;;;5001023;28;87557;-48
2021/01/19 02:34:53;;;;;;;;;;;-3.40;91.50;;;;;;5000782;28;88104;-50
2021/01/19 02:37:26;;;;;;;;;;;-3.40;91.50;;;;;;4979585;28;88783;-47
2021/01/19 02:40:01;;;;;;;;;;;-3.40;91.50;;;;;;4979376;28;88103;-50
2021/01/19 02:42:30;;;;;;;;;;;-3.40;91.40;;;;;;4979989;28;87999;-49
2021/01/19 02:44:56;;;;;;;;;;;-3.40;91.50;;;;;;4982443;28;87263;-49
2021/01/19 02:47:21;;;;;;;;;;;-3.40;91.50;;;;;;5000508;28;87514;-48
2021/01/19 02:49:47;;;;;;;;;;;-3.40;91.40;;;;;;4999175;28;88990;-48
2021/01/19 02:52:13;;;;;;;;;;;-3.50;91.30;;;;;;5001703;28;87174;-48
2021/01/19 02:54:40;;;;;;;;;;;-3.50;91.40;;;;;;4996796;28;89374;-48
2021/01/19 02:57:08;;;;;;;;;;;-3.50;91.40;;;;;;5000724;28;88041;-48
2021/01/19 02:59:38;;;;;;;;;;;-3.50;91.40;;;;;;4998557;28;87137;-50
2021/01/19 03:02:06;;;;;;;;;;;-3.50;91.50;;;;;;4999650;28;88095;-48
2021/01/19 03:04:32;;;;;;;;;;;-3.50;91.40;;;;;;4999899;28;89691;-48
2021/01/19 03:07:01;;;;;;;;;;;-3.50;91.40;;;;;;5000734;28;87940;-48
2021/01/19 03:09:27;;;;;;;;;;;-3.50;91.30;;;;;;4997826;28;89325;-49
2021/01/19 03:11:54;;;;;;;;;;;-3.50;91.40;;;;;;5000803;28;87187;-49
2021/01/19 03:14:19;;;;;;;;;;;-3.50;91.20;;;;;;5001017;28;87409;-48
2021/01/19 03:16:46;;;;;;;;;;;-3.60;91.20;;;;;;5012389;28;87217;-49
2021/01/19 03:19:14;;;;;;;;;;;-3.50;91.20;;;;;;5021373;28;89277;-48
2021/01/19 03:21:40;;;;;;;;;;;-3.60;91.40;;;;;;5017625;28;86843;-48
2021/01/19 03:24:06;;;;;;;;;;;-3.50;91.30;;;;;;5012630;28;87167;-49
2021/01/19 03:26:31;;;;;;;;;;;-3.60;91.30;;;;;;4996817;28;88319;-48
2021/01/19 03:28:57;;;;;;;;;;;-3.60;91.20;;;;;;4995199;28;89139;-47
2021/01/19 03:31:22;;;;;;;;;;;-3.60;91.30;;;;;;4996785;28;87371;-48
2021/01/19 03:33:48;;;;;;;;;;;-3.60;91.20;;;;;;4998830;28;87425;-49
2021/01/19 03:36:13;;;;;;;;;;;-3.60;91.30;;;;;;4996271;28;87184;-51
2021/01/19 03:38:39;;;;;;;;;;;-3.60;91.20;;;;;;4999774;28;88648;-52
2021/01/19 03:41:04;;;;;;;;;;;-3.60;91.20;;;;;;5000867;28;87719;-50
2021/01/19 03:43:30;;;;;;;;;;;-3.60;91.20;;;;;;5002813;28;87259;-50
2021/01/19 03:45:55;;;;;;;;;;;-3.60;91.20;;;;;;5021037;28;87640;-48
2021/01/19 03:48:21;;;;;;;;;;;-3.60;91.20;;;;;;5019907;28;87683;-48
2021/01/19 03:50:46;;;;;;;;;;;-3.60;91.40;;;;;;5019378;28;87163;-48
2021/01/19 03:53:12;;;;;;;;;;;-3.60;91.30;;;;;;5018054;28;88195;-48
2021/01/19 03:55:37;;;;;;;;;;;-3.60;91.20;;;;;;5008751;28;88325;-48
2021/01/19 03:58:03;;;;;;;;;;;-3.60;91.30;;;;;;4997159;28;88939;-48
2021/01/19 04:00:28;;;;;;;;;;;-3.60;91.30;;;;;;4996208;28;88412;-48
2021/01/19 04:02:54;;;;;;;;;;;-3.60;91.30;;;;;;4995840;28;87164;-48
2021/01/19 04:05:19;;;;;;;;;;;-3.60;91.30;;;;;;4996418;28;88572;-53
2021/01/19 04:07:45;;;;;;;;;;;-3.70;91.30;;;;;;5001105;28;89654;-51
2021/01/19 04:10:12;;;;;;;;;;;-3.60;91.30;;;;;;5004289;28;86416;-48
2021/01/19 04:12:37;;;;;;;;;;;-3.70;91.30;;;;;;5001195;28;87864;-48
2021/01/19 04:15:04;;;;;;;;;;;-3.60;91.40;;;;;;5000191;28;87481;-49
2021/01/19 04:17:29;;;;;;;;;;;-3.60;91.40;;;;;;5001811;28;88159;-49
2021/01/19 04:19:55;;;;;;;;;;;-3.60;91.40;;;;;;4999637;28;87767;-47
2021/01/19 04:22:21;;;;;;;;;;;-3.70;91.20;;;;;;4999563;28;87188;-48
2021/01/19 04:24:46;;;;;;;;;;;-3.60;91.20;;;;;;5000292;28;87867;-50
2021/01/19 04:27:12;;;;;;;;;;;-3.70;91.10;;;;;;5001930;28;88563;-48
2021/01/19 04:29:37;;;;;;;;;;;-3.70;91.10;;;;;;5000690;28;87889;-48
2021/01/19 04:32:03;;;;;;;;;;;-3.70;91.30;;;;;;4998998;28;88826;-49
2021/01/19 04:34:29;;;;;;;;;;;-3.70;91.30;;;;;;5003285;28;87400;-48
2021/01/19 04:36:54;;;;;;;;;;;-3.70;91.20;;;;;;5023911;28;87175;-50
2021/01/19 04:39:20;;;;;;;;;;;-3.70;91.20;;;;;;5025826;28;87159;-48
2021/01/19 04:41:46;;;;;;;;;;;-3.70;91.10;;;;;;5021783;28;88105;-48
2021/01/19 04:44:12;;;;;;;;;;;-3.70;91.40;;;;;;5020097;28;89813;-47
2021/01/19 04:46:39;;;;;;;;;;;-3.70;91.30;;;;;;5019590;28;87862;-48
2021/01/19 04:49:04;;;;;;;;;;;-3.70;91.20;;;;;;5020530;28;87164;-47
2021/01/19 04:51:32;;;;;;;;;;;-3.70;91.20;;;;;;5021465;28;87277;-48
2021/01/19 04:54:02;;;;;;;;;;;-3.80;91.20;;;;;;5018997;28;87167;-48
2021/01/19 04:56:27;;;;;;;;;;;-3.70;91.20;;;;;;5020752;28;87213;-48
2021/01/19 04:58:54;;;;;;;;;;;-3.70;91.30;;;;;;5022155;28;88642;-48
2021/01/19 05:01:35;;;;;;;;;;;-3.70;91.30;;;;;;5023524;28;89395;-48
2021/01/19 05:04:27;;;;;;;;;;;-3.70;91.30;;;;;;5022425;28;87529;-50
2021/01/19 05:07:11;;;;;;;;;;;-3.70;91.20;;;;;;4984768;28;88721;-48
2021/01/19 05:09:46;;;;;;;;;;;-3.70;91.20;;;;;;5003493;28;87184;-49
2021/01/19 05:12:18;;;;;;;;;;;-3.80;91.30;;;;;;4999005;28;87415;-47
2021/01/19 05:14:43;;;;;;;;;;;-3.80;91.40;;;;;;4999989;28;89161;-48
2021/01/19 05:17:09;;;;;;;;;;;-3.80;91.10;;;;;;4998646;28;87213;-47
2021/01/19 05:19:37;;;;;;;;;;;-3.80;91.10;;;;;;4999871;28;87486;-48
2021/01/19 05:22:04;;;;;;;;;;;-3.80;91.00;;;;;;5001501;28;88914;-48
2021/01/19 05:24:29;;;;;;;;;;;-3.80;91.30;;;;;;5004967;28;88015;-48
2021/01/19 05:26:55;;;;;;;;;;;-3.80;91.20;;;;;;5016936;28;90751;-48
2021/01/19 05:29:22;;;;;;;;;;;-3.80;91.30;;;;;;5019538;28;87199;-49
2021/01/19 05:31:51;;;;;;;;;;;-3.80;91.20;;;;;;5017572;28;88231;-49
2021/01/19 05:34:16;;;;;;;;;;;-3.80;91.10;;;;;;5021558;28;89203;-49
2021/01/19 05:36:43;;;;;;;;;;;-3.80;91.20;;;;;;5004790;28;87207;-48
2021/01/19 05:39:10;;;;;;;;;;;-3.80;91.20;;;;;;5002679;28;88435;-52
2021/01/19 05:41:40;;;;;;;;;;;-3.80;91.20;;;;;;5001174;28;89438;-49
2021/01/19 05:44:10;;;;;;;;;;;-3.80;91.10;;;;;;5002861;28;87391;-48
2021/01/19 05:46:39;;;;;;;;;;;-3.90;91.10;;;;;;5015086;28;89234;-48
2021/01/19 05:49:05;;;;;;;;;;;-3.90;91.10;;;;;;5022846;28;86424;-49
2021/01/19 05:51:31;;;;;;;;;;;-3.90;91.10;;;;;;5022588;28;87194;-48
2021/01/19 05:53:57;;;;;;;;;;;-3.90;91.20;;;;;;5019103;28;88979;-48
2021/01/19 05:56:23;;;;;;;;;;;-3.90;91.20;;;;;;5017433;28;89593;-48
2021/01/19 05:58:49;;;;;;;;;;;-3.90;91.20;;;;;;5017917;28;88432;-47
2021/01/19 06:01:21;;;;;;;;;;;-3.90;91.20;;;;;;5017442;28;89330;-48
2021/01/19 06:03:53;;;;;;;;;;;-3.90;91.10;;;;;;5022608;28;87125;-48
2021/01/19 06:06:18;;;;;;;;;;;-3.90;91.10;;;;;;5021808;28;87988;-47
2021/01/19 06:08:45;;;;;;;;;;;-3.90;91.20;;;;;;5018651;28;87196;-50
2021/01/19 06:11:11;;;;;;;;;;;-3.90;91.20;;;;;;5017612;28;87112;-48
2021/01/19 06:13:38;;;;;;;;;;;-3.90;91.20;;;;;;5019071;28;87008;-47
2021/01/19 06:16:07;;;;;;;;;;;-3.90;91.10;;;;;;5017612;28;87125;-48
2021/01/19 06:18:36;;;;;;;;;;;-3.90;91.10;;;;;;5021089;28;87191;-48
2021/01/19 06:21:02;;;;;;;;;;;-3.90;91.20;;;;;;5019489;28;90359;-47
2021/01/19 06:23:27;;;;;;;;;;;-3.90;91.20;;;;;;5018361;28;87904;-48
2021/01/19 06:26:03;;;;;;;;;;;-3.90;91.10;;;;;;5017655;28;87196;-48
2021/01/19 06:28:28;;;;;;;;;;;-3.90;91.30;;;;;;5020853;28;88675;-48
2021/01/19 06:30:54;;;;;;;;;;;-3.90;91.10;;;;;;5017992;28;87453;-48
2021/01/19 06:33:21;;;;;;;;;;;-3.90;91.20;;;;;;5018738;28;88696;-49
2021/01/19 06:35:46;;;;;;;;;;;-3.90;91.00;;;;;;5017484;28;87922;-48
2021/01/19 06:38:12;;;;;;;;;;;-3.90;91.10;;;;;;5020332;28;88755;-51
2021/01/19 06:40:42;;;;;;;;;;;-3.90;91.10;;;;;;5018992;28;89583;-48
2021/01/19 06:43:13;;;;;;;;;;;-3.90;91.10;;;;;;5017656;28;87222;-47
2021/01/19 06:45:39;;;;;;;;;;;-3.90;91.10;;;;;;5011267;28;88730;-49
2021/01/19 06:48:06;;;;;;;;;;;-3.90;91.20;;;;;;4996673;28;88311;-48
2021/01/19 06:50:34;;;;;;;;;;;-3.90;91.00;;;;;;5003399;28;87143;-48
2021/01/19 06:53:15;;;;;;;;;;;-3.90;91.10;;;;;;4998033;28;89217;-48
2021/01/19 06:55:50;;;;;;;;;;;-3.90;91.10;;;;;;4997739;28;87195;-48
2021/01/19 06:58:17;;;;;;;;;;;-3.90;91.20;;;;;;4998113;28;87199;-48
2021/01/19 07:00:43;;;;;;;;;;;-3.90;91.20;;;;;;4996832;28;89139;-48
2021/01/19 07:03:22;;;;;;;;;;;-3.90;91.20;;;;;;4999122;28;87729;-49
2021/01/19 07:05:51;;;;;;;;;;;-3.90;91.10;;;;;;4997205;28;87229;-48
2021/01/19 07:08:20;;;;;;;;;;;-3.90;91.20;;;;;;4997607;28;87566;-48
2021/01/19 07:11:12;;;;;;;;;;;-3.90;91.10;;;;;;5000468;28;88899;-48
2021/01/19 07:13:38;;;;;;;;;;;-3.90;91.20;;;;;;4986919;28;87251;-48
2021/01/19 07:16:04;;;;;;;;;;;-3.90;91.10;;;;;;5007983;28;88291;-48
2021/01/19 07:18:42;;;;;;;;;;;-3.90;91.10;;;;;;5020526;28;89141;-49
2021/01/19 07:21:17;;;;;;;;;;;-4.00;91.10;;;;;;5020010;28;88123;-50
2021/01/19 07:23:46;;;;;;;;;;;-3.90;91.20;;;;;;5020593;28;87153;-48
2021/01/19 07:26:17;;;;;;;;;;;-4.00;91.10;;;;;;5017396;28;87419;-48
2021/01/19 07:28:43;;;;;;;;;;;-3.90;91.20;;;;;;5016767;28;87065;-48
2021/01/19 07:31:10;;;;;;;;;;;-4.00;91.10;;;;;;5016344;28;87168;-48
2021/01/19 07:33:36;;;;;;;;;;;-4.00;91.20;;;;;;5023614;28;87456;-49
2021/01/19 07:36:02;;;;;;;;;;;-3.90;91.20;;;;;;5018454;28;88095;-47
2021/01/19 07:38:27;;;;;;;;;;;-3.90;91.20;;;;;;5018368;28;88368;-49
2021/01/19 07:40:54;;;;;;;;;;;-3.90;91.20;;;;;;5017943;28;87638;-47
2021/01/19 07:43:20;;;;;;;;;;;-4.00;91.10;;;;;;5015869;28;87162;-48
2021/01/19 07:45:49;;;;;;;;;;;-4.00;91.10;;;;;;5017333;28;87270;-48
2021/01/19 07:48:15;;;;;;;;;;;-3.90;91.30;;;;;;5018146;28;88781;-49
2021/01/19 07:50:42;;;;;;;;;;;-4.00;91.10;;;;;;5018227;28;87149;-49
2021/01/19 07:53:09;;;;;;;;;;;-4.00;91.20;;;;;;5019324;28;88569;-51
2021/01/19 07:55:41;;;;;;;;;;;-4.00;91.20;;;;;;5020820;28;89635;-48
2021/01/19 07:58:13;;;;;;;;;;;-4.00;91.10;;;;;;5016549;28;87157;-48
2021/01/19 08:00:39;;;;;;;;;;;-3.90;91.20;;;;;;5014764;28;89087;-47
2021/01/19 08:03:05;;;;;;;;;;;-3.90;91.10;;;;;;5017362;28;87127;-47
2021/01/19 08:05:31;;;;;;;;;;;-3.90;91.20;;;;;;5016355;28;87568;-48
2021/01/19 08:07:57;;;;;;;;;;;-4.00;91.20;;;;;;5016251;28;88026;-47
2021/01/19 08:10:30;;;;;;;;;;;-3.90;91.20;;;;;;5016048;28;88178;-49
2021/01/19 08:12:56;;;;;;;;;;;-3.90;91.10;;;;;;5019150;28;88829;-49
2021/01/19 08:15:32;;;;;;;;;;;-3.90;91.30;;;;;;5019413;28;88326;-51
2021/01/19 08:17:58;;;;;;;;;;;-3.90;91.10;;;;;;5024043;28;86361;-49
2021/01/19 08:20:27;;;;;;;;;;;-3.90;91.10;;;;;;5017923;28;89379;-47
2021/01/19 08:22:53;;;;;;;;;;;-3.90;91.10;;;;;;5019908;28;87120;-48
2021/01/19 08:25:26;;;;;;;;;;;-4.00;91.10;;;;;;5019015;28;88114;-49
2021/01/19 08:27:52;;;;;;;;;;;-3.90;91.10;;;;;;5017295;28;88039;-47
2021/01/19 08:30:24;;;;;;;;;;;-4.00;91.10;;;;;;5017467;28;87136;-49
2021/01/19 08:32:50;;;;;;;;;;;-4.00;91.20;;;;;;5017020;28;89067;-49
2021/01/19 08:35:16;;;;;;;;;;;-3.90;91.10;;;;;;5017134;28;88853;-48
2021/01/19 08:37:45;;;;;;;;;;;-3.90;91.10;;;;;;5018011;28;88625;-47
2021/01/19 08:40:11;;;;;;;;;;;-3.90;91.10;;;;;;5020276;28;87484;-48
2021/01/19 08:42:37;;;;;;;;;;;-4.00;91.10;;;;;;5018769;28;86425;-48
2021/01/19 08:45:02;;;;;;;;;;;-3.90;91.10;;;;;;5019727;28;88246;-51
2021/01/19 08:47:30;;;;;;;;;;;-3.90;91.10;;;;;;5018935;28;87607;-49
2021/01/19 08:49:55;;;;;;;;;;;-4.00;91.10;;;;;;5015952;28;88109;-48
2021/01/19 08:52:28;;;;;;;;;;;-3.90;91.10;;;;;;5017368;28;88387;-48
2021/01/19 08:54:53;;;;;;;;;;;-3.90;91.10;;;;;;5019393;28;88160;-48
2021/01/19 08:57:19;;;;;;;;;;;-3.90;91.00;;;;;;5019886;28;87164;-48
2021/01/19 08:59:51;;;;;;;;;;;-3.90;91.20;;;;;;5018873;28;89243;-47
2021/01/19 09:02:17;;;;;;;;;;;-3.90;91.20;;;;;;5025163;28;89227;-49
2021/01/19 09:04:44;;;;;;;;;;;-3.90;91.10;;;;;;5022449;28;89412;-50
2021/01/19 09:07:12;;;;;;;;;;;-3.90;91.20;;;;;;5020828;28;87545;-48
2021/01/19 09:09:44;;;;;;;;;;;-3.90;91.10;;;;;;5020677;28;88776;-49
2021/01/19 09:12:16;;;;;;;;;;;-3.90;91.20;;;;;;5022739;28;87546;-49
2021/01/19 09:14:43;;;;;;;;;;;-3.90;91.10;;;;;;5020528;28;90992;-50
2021/01/19 09:17:09;;;;;;;;;;;-3.90;91.20;;;;;;5019750;28;87252;-49
2021/01/19 09:19:34;;;;;;;;;;;-3.90;91.20;;;;;;5020821;28;87136;-47
2021/01/19 09:22:00;;;;;;;;;;;-3.90;91.20;;;;;;5021314;28;88306;-49
2021/01/19 09:24:26;;;;;;;;;;;-3.90;91.20;;;;;;5024322;28;87187;-49
2021/01/19 09:26:58;;;;;;;;;;;-3.90;91.20;;;;;;5021921;28;89174;-49
2021/01/19 09:29:28;;;;;;;;;;;-3.90;91.10;;;;;;5020575;28;87171;-48
2021/01/19 09:31:54;;;;;;;;;;;-3.90;91.20;;;;;;5020368;28;88033;-50
2021/01/19 09:34:20;;;;;;;;;;;-3.90;91.20;;;;;;5018727;28;88334;-48
2021/01/19 09:36:46;;;;;;;;;;;-3.90;91.20;;;;;;5022522;28;87143;-49
2021/01/19 09:39:12;;;;;;;;;;;-3.90;91.20;;;;;;5020982;28;88142;-47
2021/01/19 09:41:42;;;;;;;;;;;-3.90;91.20;;;;;;5021437;28;88185;-49
2021/01/19 09:44:07;;;;;;;;;;;-3.90;91.30;;;;;;5022839;28;88304;-53
2021/01/19 09:46:33;;;;;;;;;;;-3.90;91.20;;;;;;5020536;28;88764;-48
2021/01/19 09:49:00;;;;;;;;;;;-3.80;91.30;;;;;;5019594;28;88207;-49
2021/01/19 09:51:29;;;;;;;;;;;-3.80;91.20;;;;;;5020832;28;87222;-48
2021/01/19 09:53:58;;;;;;;;;;;-3.80;91.20;;;;;;5021939;28;89495;-50
2021/01/19 09:56:24;;;;;;;;;;;-3.80;91.20;;;;;;5021501;28;87974;-48
2021/01/19 09:58:59;;;;;;;;;;;-3.80;91.20;;;;;;5020632;28;88776;-48
2021/01/19 10:01:25;;;;;;;;;;;-3.90;91.20;;;;;;5017523;28;87874;-47
2021/01/19 10:03:50;;;;;;;;;;;-3.80;91.30;;;;;;5017167;28;88148;-48
2021/01/19 10:06:20;;;;;;;;;;;-3.80;91.30;;;;;;5020107;28;88602;-47
2021/01/19 10:08:50;;;;;;;;;;;-3.80;91.30;;;;;;5019830;28;87149;-48
2021/01/19 10:11:26;;;;;;;;;;;-3.80;91.30;;;;;;5021670;28;88564;-50
2021/01/19 10:13:52;;;;;;;;;;;-3.80;91.30;;;;;;5020393;28;87387;-49
2021/01/19 10:16:25;;;;;;;;;;;-3.80;91.30;;;;;;5020581;28;87186;-47
2021/01/19 10:18:50;;;;;;;;;;;-3.80;91.30;;;;;;5020079;28;88596;-48
2021/01/19 10:21:29;;;;;;;;;;;-3.80;91.40;;;;;;5016728;28;87524;-48
2021/01/19 10:23:55;;;;;;;;;;;-3.80;91.40;;;;;;4997478;28;87234;-48
2021/01/19 10:26:26;;;;;;;;;;;-3.80;91.40;;;;;;4997644;28;87364;-47
2021/01/19 10:28:54;;;;;;;;;;;-3.80;91.40;;;;;;4999407;28;89472;-48
2021/01/19 10:31:21;;;;;;;;;;;-3.80;91.30;;;;;;5000391;28;88423;-48
2021/01/19 10:34:00;;;;;;;;;;;-3.80;91.60;;;;;;4997904;28;88288;-48
2021/01/19 10:36:26;;;;;;;;;;;-3.70;91.40;;;;;;4999807;28;87190;-48
2021/01/19 10:38:52;;;;;;;;;;;-3.80;91.30;;;;;;4999434;28;88394;-48
2021/01/19 10:41:24;;;;;;;;;;;-3.70;91.40;;;;;;4999815;28;88293;-48
2021/01/19 10:43:50;;;;;;;;;;;-3.70;91.40;;;;;;4998395;28;87238;-47
2021/01/19 10:46:19;;;;;;;;;;;-3.70;91.40;;;;;;4998609;28;88658;-48
2021/01/19 10:48:45;;;;;;;;;;;-3.80;91.40;;;;;;5000099;28;88220;-48
2021/01/19 10:51:10;;;;;;;;;;;-3.70;91.40;;;;;;5005156;28;87275;-48
2021/01/19 10:53:41;;;;;;;;;;;-3.70;91.40;;;;;;5018172;28;88574;-48
2021/01/19 10:56:13;;;;;;;;;;;-3.70;91.40;;;;;;5018385;28;87151;-48
2021/01/19 10:58:39;;;;;;;;;;;-3.70;91.40;;;;;;5019620;28;88980;-48
2021/01/19 11:01:04;;;;;;;;;;;-3.70;91.40;;;;;;5016053;28;88506;-50
2021/01/19 11:03:30;;;;;;;;;;;-3.70;91.40;;;;;;5017961;28;87190;-47
2021/01/19 11:05:55;;;;;;;;;;;-3.70;91.50;;;;;;5018383;28;88119;-48
2021/01/19 11:08:21;;;;;;;;;;;-3.60;91.40;;;;;;5017233;28;87756;-48
2021/01/19 11:10:46;;;;;;;;;;;-3.70;91.40;;;;;;5018265;28;86448;-49
2021/01/19 11:13:12;;;;;;;;;;;-3.70;91.40;;;;;;5020939;28;87305;-48
2021/01/19 11:15:37;;;;;;;;;;;-3.70;91.40;;;;;;5018298;28;87185;-48
2021/01/19 11:18:03;;;;;;;;;;;-3.60;91.50;;;;;;5018049;28;88124;-48
2021/01/19 11:20:30;;;;;;;;;;;-3.60;91.40;;;;;;5017860;28;87574;-48
2021/01/19 11:22:55;;;;;;;;;;;-3.60;91.40;;;;;;5016297;28;88699;-49
2021/01/19 11:25:21;;;;;;;;;;;-3.60;91.50;;;;;;5020096;28;88711;-50
2021/01/19 11:27:49;;;;;;;;;;;-3.60;91.40;;;;;;5018259;28;88690;-48
2021/01/19 11:30:15;;;;;;;;;;;-3.60;91.50;;;;;;5017797;28;87201;-51
2021/01/19 11:32:40;;;;;;;;;;;-3.60;91.50;;;;;;5017180;28;87442;-47
2021/01/19 11:35:06;;;;;;;;;;;-3.60;91.40;;;;;;5021952;28;86901;-49
2021/01/19 11:37:32;;;;;;;;;;;-3.50;91.40;;;;;;5019890;28;87154;-48
2021/01/19 11:39:57;;;;;;;;;;;-3.50;91.40;;;;;;5020414;28;87280;-49
2021/01/19 11:42:23;;;;;;;;;;;-3.50;91.40;;;;;;5019840;28;88094;-52
2021/01/19 11:44:48;;;;;;;;;;;-3.50;91.40;;;;;;5018477;28;88099;-50
2021/01/19 11:47:14;;;;;;;;;;;-3.50;91.40;;;;;;5019865;28;88442;-49
2021/01/19 11:49:39;;;;;;;;;;;-3.50;91.40;;;;;;5018432;28;88247;-48
2021/01/19 11:52:05;;;;;;;;;;;-3.50;91.40;;;;;;5007215;28;87556;-50
2021/01/19 11:54:30;;;;;;;;;;;-3.40;91.40;;;;;;4998852;28;88051;-48
2021/01/19 11:56:56;;;;;;;;;;;-3.40;91.70;;;;;;4997615;28;87331;-47
2021/01/19 11:59:22;;;;;;;;;;;-3.40;91.40;;;;;;4999048;28;87303;-49
2021/01/19 12:01:55;;;;;;;;;;;-3.40;91.40;;;;;;4999327;28;87147;-48
2021/01/19 12:04:20;;;;;;;;;;;-3.40;91.50;;;;;;4996597;28;87775;-48
2021/01/19 12:06:46;;;;;;;;;;;-3.40;91.40;;;;;;4995199;28;88695;-48
2021/01/19 12:09:11;;;;;;;;;;;-3.40;91.50;;;;;;4997194;28;87139;-48
2021/01/19 12:11:40;;;;;;;;;;;-3.40;91.50;;;;;;4997867;28;87453;-48
2021/01/19 12:14:06;;;;;;;;;;;-3.40;91.50;;;;;;4999966;28;88343;-50
2021/01/19 12:16:33;;;;;;;;;;;-3.40;91.50;;;;;;5001135;28;88649;-48
2021/01/19 12:18:59;;;;;;;;;;;-3.30;91.50;;;;;;4999771;28;89411;-51
2021/01/19 12:21:24;;;;;;;;;;;-3.30;91.40;;;;;;5000687;28;87152;-51
2021/01/19 12:23:50;;;;;;;;;;;-3.30;91.40;;;;;;5012397;28;87379;-48
2021/01/19 12:26:16;;;;;;;;;;;-3.30;91.40;;;;;;5018031;28;89070;-48
2021/01/19 12:28:42;;;;;;;;;;;-3.30;91.50;;;;;;5018892;28;87158;-47
2021/01/19 12:31:08;;;;;;;;;;;-3.30;91.50;;;;;;5020605;28;89071;-48
2021/01/19 12:33:33;;;;;;;;;;;-3.30;91.50;;;;;;5011570;28;87602;-50
2021/01/19 12:35:59;;;;;;;;;;;-3.30;91.50;;;;;;5001532;28;87192;-48
2021/01/19 12:38:24;;;;;;;;;;;-3.20;91.50;;;;;;5005598;28;87720;-49
2021/01/19 12:40:50;;;;;;;;;;;-3.30;91.50;;;;;;5002743;28;88250;-47
2021/01/19 12:43:16;;;;;;;;;;;-3.20;91.50;;;;;;5002081;28;88416;-48
2021/01/19 12:45:41;;;;;;;;;;;-3.20;91.50;;;;;;5000460;28;88731;-48
2021/01/19 12:48:07;;;;;;;;;;;-3.20;91.50;;;;;;5001877;28;87259;-48
2021/01/19 12:50:34;;;;;;;;;;;-3.20;91.50;;;;;;4999418;28;88003;-49
2021/01/19 12:53:01;;;;;;;;;;;-3.20;91.50;;;;;;4998705;28;89648;-49
2021/01/19 12:55:27;;;;;;;;;;;-3.20;91.60;;;;;;5002254;28;89716;-47
2021/01/19 12:57:53;;;;;;;;;;;-3.10;91.60;;;;;;5000503;28;88829;-48
2021/01/19 13:00:18;;;;;;;;;;;-3.20;91.50;;;;;;5001778;28;87605;-48
2021/01/19 13:02:44;;;;;;;;;;;-3.10;91.60;;;;;;5000161;28;87509;-50
2021/01/19 13:05:11;;;;;;;;;;;-3.10;91.50;;;;;;5000431;28;87457;-48
2021/01/19 13:07:37;;;;;;;;;;;-3.10;91.60;;;;;;4998894;28;87200;-48
2021/01/19 13:10:03;;;;;;;;;;;-3.10;91.60;;;;;;4999328;28;87436;-48
2021/01/19 13:12:28;;;;;;;;;;;-3.10;91.80;;;;;;5000372;28;86546;-49
2021/01/19 13:14:54;;;;;;;;;;;-3.10;91.60;;;;;;5001305;28;87247;-52
2021/01/19 13:17:19;;;;;;;;;;;-3.00;91.60;;;;;;5000275;28;88622;-51
2021/01/19 13:19:45;;;;;;;;;;;-1.20;90.40;;;;;;5000036;28;89764;-53
2021/01/19 13:22:11;;;;;;;;;;;2.60;77.00;;;;;;5004086;28;87157;-53
2021/01/19 13:24:36;;;;;;;;;;;5.10;67.00;;;;;;5016234;28;88649;-62
2021/01/19 13:27:02;;;;;;;;;;;6.50;62.30;;;;;;5019674;28;87161;-52
2021/01/19 13:29:27;;;;;;;;;;;7.50;58.50;;;;;;5020985;28;87165;-57
2021/01/19 13:31:57;;;;;;;;;;;7.60;57.40;;;;;;5020487;28;87987;-53
2021/01/19 13:34:23;;;;;;;;;;;6.90;59.80;;;;;;5021166;28;87123;-50
2021/01/19 13:36:49;;;;;;;;;;;8.20;56.80;;;;;;5022108;28;87682;-56
2021/01/19 13:39:14;;;;;;;;;;;9.20;53.90;;;;;;5021121;28;87558;-51
2021/01/19 13:41:39;;;;;;;;;;;9.60;53.00;;;;;;5022025;28;88926;-48
2021/01/19 13:44:05;;;;;;;;;;;8.70;54.80;;;;;;5020979;28;89573;-53
2021/01/19 13:46:31;;;;;;;;;;;7.80;57.60;;;;;;5021851;28;87228;-53
2021/01/19 13:48:56;;;;;;;;;;;8.60;56.40;;;;;;5022729;28;88687;-51
2021/01/19 13:51:22;;;;;;;;;;;10.00;53.30;;;;;;5021180;28;88716;-51
2021/01/19 13:53:48;;;;;;;;;;;10.90;50.70;;;;;;5021786;28;88764;-51
2021/01/19 13:56:14;;;;;;;;;;;11.40;50.00;;;;;;5021529;28;87959;-51
2021/01/19 13:58:41;;;;;;;;;;;11.90;48.90;;;;;;5021792;28;90347;-50
2021/01/19 14:01:06;;;;;;;;;;;12.40;48.00;;;;;;5021760;28;86391;-47
2021/01/19 14:48:03;;;;;;;;;;;9.60;56.00;;;;;;5061110;27;80299;-46
2021/01/19 14:50:29;;;;;;;;;;;9.00;57.70;;;;;;5055933;27;80481;-46
2021/01/19 14:53:56;;;;;;;;;;;9.60;56.50;;;;;;5056669;27;80330;-48
2021/01/19 14:56:27;;;;;;;;;;;11.40;52.80;;;;;;5057880;27;80354;-46
2021/01/19 14:58:53;;;;;;;;;;;12.50;49.90;;;;;;5057816;27;80493;-59
2021/01/19 15:01:18;;;;;;;;;;;13.10;48.40;;;;;;5058999;27;80342;-48
2021/01/19 15:03:44;;;;;;;;;;;13.60;47.20;;;;;;5060394;27;80295;-47